createdAt,value
2022-08-11T00:01:50.393Z,100698.66
2022-08-11T00:04:55.908Z,100701.78
2022-08-11T00:07:59.384Z,100693.28
2022-08-11T00:11:06.286Z,100691.50
2022-08-11T00:14:35.979Z,100691.81
2022-08-11T00:17:41.728Z,100691.06
2022-08-11T00:20:45.594Z,100689.06
2022-08-11T00:23:57.343Z,100684.22
2022-08-11T00:27:01.002Z,100682.53
2022-08-11T00:30:06.349Z,100687.03
2022-08-11T00:33:09.504Z,100682.62
2022-08-11T00:36:19.802Z,100689.81
2022-08-11T00:39:27.303Z,100691.78
2022-08-11T00:42:46.383Z,100686.41
2022-08-11T00:46:11.325Z,100693.12
2022-08-11T00:49:43.458Z,100690.09
2022-08-11T00:53:08.525Z,100693.38
2022-08-11T00:56:39.567Z,100690.69
2022-08-11T01:00:05.515Z,100688.00
2022-08-11T01:03:40.590Z,100695.75
2022-08-11T01:07:06.106Z,100695.56
2022-08-11T01:10:23.362Z,100695.28
2022-08-11T01:13:37.986Z,100695.59
2022-08-11T01:16:47.127Z,100699.91
2022-08-11T01:20:44.666Z,100701.00
2022-08-11T01:24:28.465Z,100693.72
2022-08-11T01:28:03.754Z,100697.34
2022-08-11T01:31:41.029Z,100695.34
2022-08-11T01:35:26.003Z,100694.63
2022-08-11T01:39:06.612Z,100686.50
2022-08-11T01:42:49.616Z,100697.53
2022-08-11T01:46:22.787Z,100687.19
2022-08-11T01:50:10.449Z,100688.66
2022-08-11T01:53:52.937Z,100674.56
2022-08-11T01:57:05.069Z,100683.31
2022-08-11T02:00:16.262Z,100676.12
2022-08-11T02:03:46.099Z,100675.53
2022-08-11T02:07:17.267Z,100673.16
2022-08-11T02:11:00.385Z,100672.75
2022-08-11T02:14:28.158Z,100678.53
2022-08-11T02:18:00.714Z,100675.94
2022-08-11T02:21:31.455Z,100676.31
2022-08-11T02:24:50.194Z,100669.75
2022-08-11T02:28:03.722Z,100672.13
2022-08-11T02:32:24.200Z,100672.25
2022-08-11T02:35:07.610Z,100668.94
2022-08-11T02:38:18.356Z,100663.97
2022-08-11T02:42:32.725Z,100663.09
2022-08-11T02:45:47.434Z,100654.34
2022-08-11T02:49:15.426Z,100658.81
2022-08-11T02:52:48.800Z,100650.16
2022-08-11T02:56:03.835Z,100654.13
2022-08-11T02:59:36.551Z,100649.75
2022-08-11T03:03:10.525Z,100662.94
2022-08-11T03:06:48.334Z,100654.44
2022-08-11T03:10:00.525Z,100655.31
2022-08-11T03:13:35.956Z,100656.00
2022-08-11T03:16:53.245Z,100660.66
2022-08-11T03:20:16.590Z,100668.41
2022-08-11T03:23:41.785Z,100654.44
2022-08-11T03:27:04.252Z,100662.16
2022-08-11T03:30:16.032Z,100656.81
2022-08-11T03:33:43.967Z,100655.94
2022-08-11T03:37:16.731Z,100655.22
2022-08-11T03:40:56.538Z,100661.69
2022-08-11T03:44:18.586Z,100655.31
2022-08-11T03:47:56.034Z,100656.91
2022-08-11T03:51:18.653Z,100663.38
2022-08-11T03:54:48.478Z,100665.38
2022-08-11T03:58:00.198Z,100668.38
2022-08-11T04:01:24.783Z,100665.59
2022-08-11T04:05:05.529Z,100659.53
2022-08-11T04:08:14.253Z,100657.84
2022-08-11T04:11:51.433Z,100674.34
2022-08-11T04:15:37.230Z,100663.41
2022-08-11T04:18:49.353Z,100664.16
2022-08-11T04:22:10.415Z,100671.34
2022-08-11T04:25:19.252Z,100679.47
2022-08-11T04:28:42.998Z,100670.91
2022-08-11T04:32:08.380Z,100679.22
2022-08-11T04:35:17.199Z,100677.09
2022-08-11T04:38:38.550Z,100680.13
2022-08-11T04:42:12.287Z,100682.16
2022-08-11T04:45:47.514Z,100676.25
2022-08-11T04:49:52.332Z,100679.22
2022-08-11T04:53:35.719Z,100682.19
2022-08-11T04:57:02.657Z,100677.03
2022-08-11T05:00:32.227Z,100678.75
2022-08-11T05:03:52.741Z,100682.25
2022-08-11T05:07:04.771Z,100681.50
2022-08-11T05:10:25.983Z,100682.28
2022-08-11T05:13:53.214Z,100687.06
2022-08-11T05:17:19.307Z,100693.06
2022-08-11T05:20:44.438Z,100688.75
2022-08-11T05:24:12.534Z,100693.06
2022-08-11T05:27:34.980Z,100689.34
2022-08-11T05:31:01.004Z,100692.06
2022-08-11T05:34:41.553Z,100698.66
2022-08-11T05:38:04.646Z,100696.44
2022-08-11T05:41:29.950Z,100704.50
2022-08-11T05:44:53.858Z,100707.81
2022-08-11T05:48:18.918Z,100701.31
2022-08-11T05:51:52.314Z,100710.94
2022-08-11T05:55:22.711Z,100708.09
2022-08-11T05:58:26.932Z,100706.06
2022-08-11T06:01:33.796Z,100709.47
2022-08-11T06:04:38.286Z,100710.81
2022-08-11T06:07:49.169Z,100705.13
2022-08-11T06:10:53.558Z,100698.44
2022-08-11T06:13:57.457Z,100698.84
2022-08-11T06:17:03.150Z,100698.94
2022-08-11T06:20:13.141Z,100706.66
2022-08-11T06:23:19.464Z,100703.38
2022-08-11T06:26:22.861Z,100709.81
2022-08-11T06:29:38.221Z,100699.41
2022-08-11T06:32:55.507Z,100702.13
2022-08-11T06:36:07.759Z,100704.03
2022-08-11T06:39:22.185Z,100705.59
2022-08-11T06:43:17.723Z,100704.34
2022-08-11T06:46:29.464Z,100711.06
2022-08-11T06:49:55.709Z,100701.22
2022-08-11T06:52:58.550Z,100703.72
2022-08-11T06:56:21.031Z,100708.00
2022-08-11T06:59:43.474Z,100713.81
2022-08-11T07:03:00.861Z,100697.25
2022-08-11T07:06:50.946Z,100702.22
2022-08-11T07:10:55.682Z,100708.00
2022-08-11T07:14:21.404Z,100694.91
2022-08-11T07:17:25.855Z,100694.59
2022-08-11T07:20:50.110Z,100699.47
2022-08-11T07:24:14.706Z,100697.69
2022-08-11T07:27:39.217Z,100690.75
2022-08-11T07:30:43.342Z,100694.69
2022-08-11T07:34:07.746Z,100697.94
2022-08-11T07:37:18.304Z,100698.41
2022-08-11T07:40:25.440Z,100700.56
2022-08-11T07:43:28.718Z,100697.97
2022-08-11T07:46:51.767Z,100693.63
2022-08-11T07:50:13.869Z,100689.88
2022-08-11T07:53:19.113Z,100682.66
2022-08-11T07:56:34.762Z,100669.47
2022-08-11T08:00:05.078Z,100686.53
2022-08-11T08:03:33.331Z,100681.41
2022-08-11T08:06:56.388Z,100669.62
2022-08-11T08:10:17.949Z,100677.53
2022-08-11T08:13:39.438Z,100680.03
2022-08-11T08:17:01.291Z,100674.50
2022-08-11T08:20:07.416Z,100679.56
2022-08-11T08:23:11.524Z,100674.91
2022-08-11T08:26:35.169Z,100673.38
2022-08-11T08:29:57.233Z,100668.06
2022-08-11T08:33:01.168Z,100661.91
2022-08-11T08:36:12.442Z,100660.97
2022-08-11T08:39:21.823Z,100655.41
2022-08-11T08:42:28.375Z,100657.97
2022-08-11T08:45:37.745Z,100647.94
2022-08-11T08:48:43.899Z,100636.22
2022-08-11T08:52:01.462Z,100646.87
2022-08-11T08:55:20.221Z,100640.81
2022-08-11T08:58:24.618Z,100643.41
2022-08-11T09:01:33.466Z,100646.91
2022-08-11T09:04:37.333Z,100648.69
2022-08-11T09:07:41.565Z,100639.75
2022-08-11T09:11:13.624Z,100639.66
2022-08-11T09:14:51.917Z,100633.81
2022-08-11T09:18:03.702Z,100622.69
2022-08-11T09:21:07.601Z,100623.03
2022-08-11T09:24:30.765Z,100622.22
2022-08-11T09:27:33.926Z,100612.06
2022-08-11T09:30:41.580Z,100615.75
2022-08-11T09:33:44.896Z,100623.25
2022-08-11T09:37:06.890Z,100616.91
2022-08-11T09:40:30.675Z,100616.69
2022-08-11T09:44:00.988Z,100609.41
2022-08-11T09:47:08.288Z,100613.53
2022-08-11T09:50:17.374Z,100606.59
2022-08-11T09:53:36.808Z,100616.34
2022-08-11T09:57:05.338Z,100609.38
2022-08-11T10:00:13.593Z,100591.00
2022-08-11T10:03:25.743Z,100597.81
2022-08-11T10:06:48.621Z,100595.25
2022-08-11T10:10:02.220Z,100595.81
2022-08-11T10:13:44.087Z,100577.25
2022-08-11T10:16:35.947Z,100576.56
2022-08-11T10:19:40.207Z,100577.56
2022-08-11T10:23:02.354Z,100575.56
2022-08-11T10:26:25.810Z,100578.84
2022-08-11T10:29:59.627Z,100572.87
2022-08-11T10:33:36.847Z,100571.75
2022-08-11T10:36:50.330Z,100570.50
2022-08-11T10:39:56.399Z,100572.16
2022-08-11T10:43:07.063Z,100565.87
2022-08-11T10:46:30.345Z,100554.84
2022-08-11T10:49:34.231Z,100559.13
2022-08-11T10:52:56.636Z,100560.78
2022-08-11T10:56:18.805Z,100545.50
2022-08-11T10:59:24.403Z,100546.63
2022-08-11T11:02:28.577Z,100541.28
2022-08-11T11:05:32.522Z,100550.66
2022-08-11T11:08:57.687Z,100545.09
2022-08-11T11:12:36.900Z,100543.22
2022-08-11T11:16:04.092Z,100537.72
2022-08-11T11:19:10.029Z,100536.78
2022-08-11T11:22:35.029Z,100530.47
2022-08-11T11:26:12.683Z,100532.19
2022-08-11T11:29:37.642Z,100529.09
2022-08-11T11:32:49.942Z,100517.97
2022-08-11T11:36:16.803Z,100520.16
2022-08-11T11:39:26.207Z,100512.66
2022-08-11T11:42:30.029Z,100518.09
2022-08-11T11:45:32.951Z,100516.72
2022-08-11T11:48:37.177Z,100520.34
2022-08-11T11:51:40.612Z,100511.06
2022-08-11T11:54:52.250Z,100509.53
2022-08-11T11:58:15.963Z,100512.16
2022-08-11T12:01:25.240Z,100504.16
2022-08-11T12:04:29.143Z,100499.84
2022-08-11T12:08:05.091Z,100488.78
2022-08-11T12:11:34.449Z,100481.66
2022-08-11T12:14:37.556Z,100480.72
2022-08-11T12:17:40.832Z,100476.28
2022-08-11T12:20:45.383Z,100469.22
2022-08-11T12:24:08.382Z,100459.44
2022-08-11T12:27:24.839Z,100465.66
2022-08-11T12:30:29.762Z,100455.47
2022-08-11T12:33:35.177Z,100451.22
2022-08-11T12:37:01.698Z,100454.75
2022-08-11T12:40:43.054Z,100446.13
2022-08-11T12:44:16.285Z,100445.34
2022-08-11T12:47:20.906Z,100442.91
2022-08-11T12:50:43.001Z,100431.13
2022-08-11T12:53:55.688Z,100432.44
2022-08-11T12:57:24.026Z,100438.31
2022-08-11T13:00:59.244Z,100438.31
2022-08-11T13:04:22.586Z,100421.47
2022-08-11T13:07:29.143Z,100424.25
2022-08-11T13:11:13.376Z,100416.44
2022-08-11T13:14:16.908Z,100404.50
2022-08-11T13:17:40.295Z,100402.59
2022-08-11T13:20:48.417Z,100402.09
2022-08-11T13:23:59.915Z,100398.81
2022-08-11T13:27:06.669Z,100392.41
2022-08-11T13:30:29.208Z,100395.97
2022-08-11T13:33:33.417Z,100381.88
2022-08-11T13:36:37.058Z,100385.38
2022-08-11T13:39:47.465Z,100380.44
2022-08-11T13:42:52.766Z,100378.84
2022-08-11T13:46:18.513Z,100371.66
2022-08-11T13:49:23.901Z,100371.59
2022-08-11T13:52:28.253Z,100371.31
2022-08-11T13:55:50.923Z,100366.81
2022-08-11T13:58:55.562Z,100355.87
2022-08-11T14:02:28.273Z,100371.63
2022-08-11T14:05:29.268Z,100370.59
2022-08-11T14:08:40.217Z,100370.22
2022-08-11T14:12:22.844Z,100362.37
2022-08-11T14:15:33.222Z,100357.62
2022-08-11T14:18:43.030Z,100361.56
2022-08-11T14:22:07.908Z,100360.06
2022-08-11T14:25:15.350Z,100359.28
2022-08-11T14:28:31.834Z,100359.72
2022-08-11T14:31:40.640Z,100354.63
2022-08-11T14:34:44.816Z,100361.66
2022-08-11T14:37:48.593Z,100357.78
2022-08-11T14:41:10.967Z,100361.28
2022-08-11T14:44:33.049Z,100355.44
2022-08-11T14:47:41.398Z,100362.06
2022-08-11T14:50:48.236Z,100355.41
2022-08-11T14:54:10.963Z,100354.59
2022-08-11T14:57:14.025Z,100354.63
2022-08-11T15:00:18.562Z,100339.75
2022-08-11T15:03:27.990Z,100337.75
2022-08-11T15:06:31.316Z,100336.56
2022-08-11T15:09:38.826Z,100345.94
2022-08-11T15:12:54.510Z,100344.75
2022-08-11T15:16:16.163Z,100345.97
2022-08-11T15:19:23.673Z,100347.53
2022-08-11T15:22:45.812Z,100347.59
2022-08-11T15:25:59.995Z,100349.94
2022-08-11T15:29:23.551Z,100346.03
2022-08-11T15:32:56.319Z,100351.91
2022-08-11T15:36:27.527Z,100350.69
2022-08-11T15:40:32.172Z,100342.88
2022-08-11T15:44:07.403Z,100339.34
2022-08-11T15:47:10.817Z,100341.28
2022-08-11T15:50:19.182Z,100338.09
2022-08-11T15:53:56.622Z,100338.03
2022-08-11T15:57:02.112Z,100332.09
2022-08-11T16:00:25.343Z,100325.41
2022-08-11T16:04:08.006Z,100324.63
2022-08-11T16:07:27.231Z,100316.47
2022-08-11T16:10:33.119Z,100319.91
2022-08-11T16:13:40.529Z,100322.88
2022-08-11T16:16:45.731Z,100321.63
2022-08-11T16:19:51.644Z,100321.50
2022-08-11T16:23:02.361Z,100321.13
2022-08-11T16:27:11.606Z,100323.00
2022-08-11T16:29:32.290Z,100321.44
2022-08-11T16:32:38.440Z,100315.44
2022-08-11T16:36:03.061Z,100318.56
2022-08-11T16:39:08.433Z,100322.81
2022-08-11T16:43:08.983Z,100318.09
2022-08-11T16:46:15.786Z,100315.72
2022-08-11T16:49:25.957Z,100313.88
2022-08-11T16:52:28.719Z,100311.84
2022-08-11T16:55:51.984Z,100319.22
2022-08-11T16:59:17.136Z,100316.84
2022-08-11T17:03:03.644Z,100317.63
2022-08-11T17:06:26.356Z,100306.81
2022-08-11T17:09:50.692Z,100305.81
2022-08-11T17:13:11.154Z,100311.91
2022-08-11T17:16:20.946Z,100304.84
2022-08-11T17:20:43.352Z,100302.41
2022-08-11T17:23:13.595Z,100298.78
2022-08-11T17:26:23.299Z,100301.41
2022-08-11T17:29:53.906Z,100311.25
2022-08-11T17:33:16.434Z,100308.44
2022-08-11T17:36:20.414Z,100307.31
2022-08-11T17:39:29.999Z,100311.87
2022-08-11T17:42:53.723Z,100305.47
2022-08-11T17:46:15.824Z,100313.12
2022-08-11T17:49:20.830Z,100310.03
2022-08-11T17:52:43.571Z,100309.41
2022-08-11T17:56:06.752Z,100315.53
2022-08-11T17:59:32.272Z,100307.91
2022-08-11T18:02:57.801Z,100316.28
2022-08-11T18:06:03.580Z,100316.47
2022-08-11T18:09:34.644Z,100319.00
2022-08-11T18:12:56.864Z,100318.81
2022-08-11T18:16:18.150Z,100324.47
2022-08-11T18:19:39.749Z,100336.03
2022-08-11T18:23:04.568Z,100335.41
2022-08-11T18:26:29.246Z,100339.88
2022-08-11T18:29:53.388Z,100353.22
2022-08-11T18:33:45.022Z,100363.06
2022-08-11T18:37:05.911Z,100356.81
2022-08-11T18:40:45.930Z,100360.97
2022-08-11T18:44:09.747Z,100368.22
2022-08-11T18:47:33.478Z,100373.63
2022-08-11T18:51:30.084Z,100379.06
2022-08-11T18:54:42.140Z,100379.63
2022-08-11T18:58:07.001Z,100384.84
2022-08-11T19:01:31.694Z,100390.03
2022-08-11T19:04:53.364Z,100389.59
2022-08-11T19:08:18.234Z,100395.16
2022-08-11T19:11:42.734Z,100398.16
2022-08-11T19:15:07.983Z,100396.75
2022-08-11T19:18:33.667Z,100395.56
2022-08-11T19:21:56.194Z,100397.16
2022-08-11T19:25:24.704Z,100391.06
2022-08-11T19:28:48.258Z,100389.66
2022-08-11T19:32:10.351Z,100392.13
2022-08-11T19:35:33.056Z,100390.44
2022-08-11T19:38:56.068Z,100390.81
2022-08-11T19:42:19.145Z,100395.38
2022-08-11T19:45:41.007Z,100387.75
2022-08-11T19:49:11.239Z,100387.47
2022-08-11T19:52:34.649Z,100393.34
2022-08-11T19:55:57.288Z,100380.94
2022-08-11T19:59:19.634Z,100384.69
2022-08-11T20:02:41.590Z,100390.81
2022-08-11T20:06:05.771Z,100388.97
2022-08-11T20:10:05.214Z,100394.47
2022-08-11T20:13:13.175Z,100384.06
2022-08-11T20:16:45.057Z,100392.31
2022-08-11T20:20:08.739Z,100388.91
2022-08-11T20:23:32.978Z,100393.37
2022-08-11T20:26:55.405Z,100396.84
2022-08-11T20:30:19.773Z,100398.16
2022-08-11T20:33:42.262Z,100396.34
2022-08-11T20:37:06.885Z,100399.97
2022-08-11T20:40:30.364Z,100395.66
2022-08-11T20:44:05.898Z,100392.09
2022-08-11T20:47:56.424Z,100394.09
2022-08-11T20:51:18.226Z,100394.69
2022-08-11T20:54:44.869Z,100399.63
2022-08-11T20:58:09.841Z,100400.66
2022-08-11T21:01:41.563Z,100397.72
2022-08-11T21:05:03.412Z,100400.44
2022-08-11T21:08:26.105Z,100390.38
2022-08-11T21:11:48.538Z,100395.44
2022-08-11T21:15:14.703Z,100399.19
2022-08-11T21:18:59.164Z,100404.50
2022-08-11T21:22:22.038Z,100409.66
2022-08-11T21:25:54.697Z,100413.03
2022-08-11T21:29:18.516Z,100415.06
2022-08-11T21:32:42.750Z,100423.94
2022-08-11T21:36:04.553Z,100415.81
2022-08-11T21:39:28.089Z,100425.84
2022-08-11T21:42:55.615Z,100427.44
2022-08-11T21:46:18.537Z,100421.22
2022-08-11T21:49:41.988Z,100430.44
2022-08-11T21:53:03.232Z,100431.00
2022-08-11T21:56:27.459Z,100434.97
2022-08-11T22:00:12.739Z,100437.22
2022-08-11T22:03:49.486Z,100430.91
2022-08-11T22:07:12.254Z,100425.03
2022-08-11T22:10:41.632Z,100425.25
2022-08-11T22:14:06.992Z,100420.75
2022-08-11T22:17:29.752Z,100413.81
2022-08-11T22:20:52.253Z,100422.28
2022-08-11T22:24:18.332Z,100425.31
2022-08-11T22:27:51.493Z,100424.19
2022-08-11T22:31:16.266Z,100419.91
2022-08-11T22:34:51.225Z,100417.66
2022-08-11T22:38:17.796Z,100406.97
2022-08-11T22:41:41.721Z,100414.06
2022-08-11T22:45:03.229Z,100415.31
2022-08-11T22:48:25.102Z,100410.00
2022-08-11T22:51:47.678Z,100409.53
2022-08-11T22:55:11.458Z,100409.41
2022-08-11T22:58:34.105Z,100402.19
2022-08-11T23:01:57.541Z,100405.47
2022-08-11T23:05:20.233Z,100407.66
2022-08-11T23:08:41.952Z,100401.69
2022-08-11T23:12:07.443Z,100408.50
2022-08-11T23:15:31.990Z,100408.38
2022-08-11T23:18:58.113Z,100407.00
2022-08-11T23:22:21.835Z,100399.97
2022-08-11T23:25:45.793Z,100399.78
2022-08-11T23:29:07.791Z,100397.59
2022-08-11T23:32:29.398Z,100383.41
2022-08-11T23:35:56.554Z,100383.66
2022-08-11T23:39:21.256Z,100384.16
2022-08-11T23:42:42.009Z,100377.56
2022-08-11T23:46:07.932Z,100375.84
2022-08-11T23:49:29.569Z,100382.28
2022-08-11T23:52:52.906Z,100379.78
2022-08-11T23:56:14.413Z,100376.31
2022-08-11T23:59:36.411Z,100380.75
